Check out our new BloomSky Weather System.

Active alerts

Houston, TX
  Details for Houston, TX Dense Fog Advisory


Thunder radar  blitzortung!


Rain radar more information rain snow radar


Visit our other weather sites:

Template documentation
and downloads

And another site



Weather Underground History page Text

Daily Summary for September 6, 2017 Units:  English    Metric   Both
« Previous Day
Next Day »
Daily Weekly Monthly Yearly Custom
  High: Low: Average:
Temperature: 83.8 °F 65.1 °F 75.3 °F
Dew Point: 76.1 °F 56.3 °F 64.4 °F
Humidity: 97 % 40 % 72 %
Wind Speed: 11.0 mph 0.0 mph 2.1 mph
Wind Gust: 20.0 mph - -
Wind:- - WSW
Pressure: 30.08 in 29.92 in -
Precipitation: 0.64 in    
Historical Graphs
 
 
Tabular Data for September 6, 2017
Time Temperature Dew Point Pressure Wind Wind Speed Wind Gust Humidity Rainfall Rate (Hourly)
00:01 78.4 °F 74.8 °F 29.97 in Calm     89 % 0.00 in
00:06 78.1 °F 74.8 °F 29.97 in Calm     90 % 0.00 in
00:11 78.1 °F 75.2 °F 29.96 in Calm     91 % 0.00 in
00:16 78.3 °F 75.4 °F 29.96 in Calm     91 % 0.00 in
00:21 78.3 °F 75.0 °F 29.96 in Calm     90 % 0.00 in
00:26 78.4 °F 75.6 °F 29.97 in Calm   1.0 mph 91 % 0.00 in
00:31 78.6 °F 75.4 °F 29.97 in Calm   1.0 mph 90 % 0.00 in
00:36 78.6 °F 75.4 °F 29.97 in Calm   1.0 mph 90 % 0.00 in
00:41 78.6 °F 75.4 °F 29.97 in Calm   1.0 mph 90 % 0.00 in
00:46 78.4 °F 75.2 °F 29.97 in Calm     90 % 0.00 in
00:51 78.4 °F 75.6 °F 29.97 in Calm     91 % 0.00 in
00:56 78.3 °F 75.4 °F 29.97 in Calm     91 % 0.00 in
01:01 78.4 °F 75.6 °F 29.98 in Calm     91 % 0.00 in
01:06 78.6 °F 75.7 °F 29.98 in WNW 3.0 mph 3.0 mph 91 % 0.00 in
01:11 78.8 °F 75.9 °F 29.99 in WNW 3.0 mph 7.0 mph 91 % 0.00 in
01:16 79.0 °F 75.7 °F 29.99 in NW 4.0 mph 7.0 mph 90 % 0.00 in
01:21 79.2 °F 75.9 °F 29.98 in NW 2.0 mph 9.0 mph 90 % 0.00 in
01:26 79.3 °F 76.1 °F 29.99 in NW 2.0 mph 9.0 mph 90 % 0.00 in
01:31 79.0 °F 74.5 °F 29.99 in SW 5.0 mph 13.0 mph 86 % 0.00 in
01:36 78.3 °F 72.3 °F 30.00 in SW 5.0 mph 14.0 mph 82 % 0.00 in
01:41 76.5 °F 70.5 °F 30.01 in WNW 3.0 mph 20.0 mph 82 % 0.00 in
01:46 74.1 °F 70.3 °F 30.01 in ENE 3.0 mph 20.0 mph 88 % 0.14 in
01:51 72.7 °F 70.0 °F 30.00 in NE 4.0 mph 20.0 mph 91 % 0.24 in
01:56 72.0 °F 69.8 °F 29.99 in SE 3.0 mph 13.0 mph 93 % 0.37 in
02:01 71.4 °F 69.6 °F 29.97 in SE 11.0 mph 11.0 mph 94 % 0.54 in
02:06 71.1 °F 69.3 °F 29.97 in Calm   13.0 mph 94 % 0.61 in
02:11 71.1 °F 69.3 °F 29.96 in Calm   13.0 mph 94 % 0.64 in
02:13 71.1 °F 69.3 °F 29.95 in Calm   13.0 mph 94 % 0.64 in
02:18 70.9 °F 69.1 °F 29.94 in South 2.0 mph 13.0 mph 94 % 0.64 in
02:23 70.5 °F 69.1 °F 29.93 in WSW 1.0 mph 4.0 mph 95 % 0.64 in
02:28 70.5 °F 69.1 °F 29.93 in Calm   2.0 mph 95 % 0.64 in
02:29 70.5 °F 69.1 °F 29.93 in Calm   2.0 mph 95 % 0.64 in
02:34 70.5 °F 69.1 °F 29.93 in Calm   2.0 mph 95 % 0.64 in
02:39 70.7 °F 69.4 °F 29.93 in WNW 1.0 mph 2.0 mph 96 % 0.64 in
02:44 70.7 °F 69.4 °F 29.92 in Calm   2.0 mph 96 % 0.64 in
02:49 70.7 °F 69.4 °F 29.92 in Calm   1.0 mph 96 % 0.48 in
02:54 70.9 °F 69.6 °F 29.92 in Calm   1.0 mph 96 % 0.39 in
02:59 70.9 °F 70.0 °F 29.92 in West 2.0 mph 2.0 mph 97 % 0.26 in
03:04 70.9 °F 69.6 °F 29.92 in SW 1.0 mph 3.0 mph 96 % 0.09 in
03:09 71.1 °F 69.8 °F 29.93 in WNW 1.0 mph 3.0 mph 96 % 0.03 in
03:14 71.1 °F 69.8 °F 29.92 in NW 1.0 mph 3.0 mph 96 % 0.00 in
03:19 71.1 °F 69.6 °F 29.93 in Calm   3.0 mph 95 % 0.00 in
03:21 71.1 °F 69.6 °F 29.93 in NW 1.0 mph 3.0 mph 95 % 0.00 in
03:26 71.1 °F 69.6 °F 29.93 in Calm   3.0 mph 95 % 0.00 in
03:31 71.1 °F 69.6 °F 29.93 in NNW 1.0 mph 3.0 mph 95 % 0.00 in
03:36 71.1 °F 69.6 °F 29.93 in NW 1.0 mph 4.0 mph 95 % 0.00 in
03:41 70.9 °F 69.4 °F 29.94 in Calm   4.0 mph 95 % 0.00 in
03:46 70.7 °F 69.3 °F 29.94 in Calm   4.0 mph 95 % 0.00 in
03:51 70.5 °F 69.1 °F 29.94 in Calm   3.0 mph 95 % 0.00 in
03:56 70.3 °F 69.1 °F 29.95 in NNW 1.0 mph 3.0 mph 96 % 0.00 in
04:01 70.3 °F 69.1 °F 29.95 in Calm   3.0 mph 96 % 0.00 in
04:06 70.3 °F 69.1 °F 29.95 in NW 2.0 mph 3.0 mph 96 % 0.00 in
04:11 70.3 °F 69.4 °F 29.96 in East 2.0 mph 4.0 mph 97 % 0.00 in
04:16 70.3 °F 69.4 °F 29.96 in Calm   4.0 mph 97 % 0.00 in
04:21 70.2 °F 69.3 °F 29.96 in NW 2.0 mph 4.0 mph 97 % 0.00 in
04:26 70.2 °F 69.3 °F 29.96 in North 3.0 mph 4.0 mph 97 % 0.00 in
04:31 70.2 °F 69.3 °F 29.96 in Calm   4.0 mph 97 % 0.00 in
04:36 70.2 °F 69.3 °F 29.96 in Calm   4.0 mph 97 % 0.00 in
04:41 70.2 °F 69.3 °F 29.96 in Calm   4.0 mph 97 % 0.00 in
04:46 70.2 °F 69.3 °F 29.96 in Calm   2.0 mph 97 % 0.00 in
04:51 70.0 °F 69.1 °F 29.97 in Calm   1.0 mph 97 % 0.00 in
04:56 70.0 °F 69.1 °F 29.97 in NNW 1.0 mph 1.0 mph 97 % 0.00 in
05:01 70.0 °F 69.1 °F 29.97 in NNW 1.0 mph 1.0 mph 97 % 0.00 in
05:06 70.0 °F 69.1 °F 29.97 in NW 1.0 mph 2.0 mph 97 % 0.00 in
05:11 70.2 °F 69.3 °F 29.98 in NNW 2.0 mph 3.0 mph 97 % 0.00 in
05:16 70.2 °F 69.3 °F 29.98 in NNW 1.0 mph 3.0 mph 97 % 0.00 in
05:21 70.2 °F 69.3 °F 29.98 in Calm   3.0 mph 97 % 0.00 in
05:26 70.3 °F 69.4 °F 29.98 in WNW 1.0 mph 3.0 mph 97 % 0.00 in
05:31 70.5 °F 69.6 °F 29.98 in Calm   3.0 mph 97 % 0.00 in
05:36 70.7 °F 69.8 °F 29.98 in Calm   4.0 mph 97 % 0.00 in
05:41 70.9 °F 70.0 °F 29.98 in Calm   7.0 mph 97 % 0.00 in
05:46 71.1 °F 70.2 °F 29.98 in WNW 1.0 mph 7.0 mph 97 % 0.00 in
05:51 71.1 °F 70.2 °F 29.98 in North 3.0 mph 7.0 mph 97 % 0.00 in
05:56 71.1 °F 70.2 °F 29.98 in NNW 3.0 mph 7.0 mph 97 % 0.00 in
06:01 71.2 °F 70.3 °F 29.98 in North 2.0 mph 7.0 mph 97 % 0.00 in
06:06 71.2 °F 70.3 °F 29.98 in WSW 1.0 mph 7.0 mph 97 % 0.00 in
06:11 71.2 °F 70.3 °F 29.99 in NNW 4.0 mph 8.0 mph 97 % 0.00 in
06:16 71.2 °F 70.3 °F 29.98 in WNW 3.0 mph 9.0 mph 97 % 0.00 in
06:21 71.2 °F 70.0 °F 29.98 in NW 5.0 mph 9.0 mph 96 % 0.00 in
06:26 71.4 °F 70.2 °F 29.99 in NNW 5.0 mph 9.0 mph 96 % 0.00 in
06:32 71.4 °F 70.2 °F 29.99 in NW 2.0 mph 8.0 mph 96 % 0.00 in
06:37 71.2 °F 69.8 °F 29.99 in NNW 4.0 mph 11.0 mph 95 % 0.00 in
06:42 71.2 °F 69.4 °F 29.99 in SE 4.0 mph 11.0 mph 94 % 0.00 in
06:47 71.2 °F 69.4 °F 29.99 in North 2.0 mph 11.0 mph 94 % 0.00 in
06:52 71.1 °F 68.9 °F 30.00 in North 3.0 mph 10.0 mph 93 % 0.00 in
06:57 71.1 °F 69.3 °F 30.00 in NNW 7.0 mph 10.0 mph 94 % 0.00 in
07:02 71.1 °F 68.9 °F 30.00 in NNW 3.0 mph 10.0 mph 93 % 0.00 in
07:07 71.1 °F 68.9 °F 30.00 in North 8.0 mph 12.0 mph 93 % 0.00 in
07:12 71.1 °F 68.9 °F 30.00 in NE 3.0 mph 12.0 mph 93 % 0.00 in
07:17 70.9 °F 68.7 °F 30.01 in ENE 3.0 mph 12.0 mph 93 % 0.00 in
07:22 70.9 °F 68.7 °F 30.01 in North 1.0 mph 13.0 mph 93 % 0.00 in
07:27 70.7 °F 68.5 °F 30.01 in NNW 5.0 mph 13.0 mph 93 % 0.00 in
07:33 70.7 °F 68.5 °F 30.01 in WNW 3.0 mph 13.0 mph 93 % 0.00 in
07:38 70.5 °F 68.0 °F 30.02 in North 4.0 mph 9.0 mph 92 % 0.00 in
07:43 70.5 °F 68.0 °F 30.02 in WNW 3.0 mph 8.0 mph 92 % 0.00 in
07:48 70.5 °F 68.0 °F 30.03 in NW 5.0 mph 8.0 mph 92 % 0.00 in
07:53 70.3 °F 67.6 °F 30.03 in NNW 1.0 mph 9.0 mph 91 % 0.00 in
07:58 70.3 °F 67.6 °F 30.03 in NW 4.0 mph 11.0 mph 91 % 0.00 in
08:03 70.3 °F 67.6 °F 30.03 in NNW 6.0 mph 11.0 mph 91 % 0.00 in
08:08 70.3 °F 67.6 °F 30.03 in NNW 3.0 mph 11.0 mph 91 % 0.00 in
08:13 70.3 °F 67.6 °F 30.03 in NNE 3.0 mph 7.0 mph 91 % 0.00 in
08:18 70.5 °F 67.8 °F 30.03 in Calm   9.0 mph 91 % 0.00 in
08:23 70.5 °F 67.5 °F 30.04 in NNW 4.0 mph 9.0 mph 90 % 0.00 in
08:28 70.5 °F 67.5 °F 30.04 in North 3.0 mph 9.0 mph 90 % 0.00 in
08:33 70.7 °F 67.3 °F 30.04 in WNW 1.0 mph 7.0 mph 89 % 0.00 in
08:38 70.9 °F 67.5 °F 30.04 in Calm   10.0 mph 89 % 0.00 in
08:43 71.1 °F 67.3 °F 30.04 in NW 2.0 mph 10.0 mph 88 % 0.00 in
08:48 71.4 °F 67.6 °F 30.04 in NW 3.0 mph 10.0 mph 88 % 0.00 in
08:53 71.4 °F 67.3 °F 30.04 in NNE 5.0 mph 9.0 mph 87 % 0.00 in
08:58 71.8 °F 67.6 °F 30.04 in West 1.0 mph 9.0 mph 87 % 0.00 in
09:03 72.0 °F 67.8 °F 30.04 in NW 4.0 mph 10.0 mph 87 % 0.00 in
09:08 72.0 °F 67.5 °F 30.04 in West 3.0 mph 10.0 mph 86 % 0.00 in
09:13 72.1 °F 67.6 °F 30.05 in WNW 4.0 mph 10.0 mph 86 % 0.00 in
09:18 72.3 °F 67.8 °F 30.05 in North 3.0 mph 9.0 mph 86 % 0.00 in
09:23 72.5 °F 67.5 °F 30.05 in WNW 3.0 mph 9.0 mph 84 % 0.00 in
09:28 72.9 °F 67.8 °F 30.05 in North 2.0 mph 9.0 mph 84 % 0.00 in
09:33 72.7 °F 67.6 °F 30.06 in NW 4.0 mph 9.0 mph 84 % 0.00 in
09:38 73.0 °F 68.0 °F 30.06 in North 5.0 mph 9.0 mph 84 % 0.00 in
09:43 73.2 °F 68.2 °F 30.06 in NW 4.0 mph 8.0 mph 84 % 0.00 in
09:48 73.8 °F 68.4 °F 30.06 in NW 1.0 mph 8.0 mph 83 % 0.00 in
09:53 73.8 °F 67.6 °F 30.06 in NNE 2.0 mph 8.0 mph 81 % 0.00 in
09:58 73.8 °F 66.9 °F 30.06 in West 2.0 mph 12.0 mph 79 % 0.00 in
10:03 73.8 °F 66.9 °F 30.06 in NNW 6.0 mph 12.0 mph 79 % 0.00 in
10:08 73.9 °F 67.1 °F 30.06 in ENE 1.0 mph 12.0 mph 79 % 0.00 in
10:13 74.3 °F 66.9 °F 30.06 in West 2.0 mph 11.0 mph 78 % 0.00 in
10:18 74.7 °F 66.6 °F 30.06 in West 4.0 mph 8.0 mph 76 % 0.00 in
10:23 75.0 °F 66.6 °F 30.07 in West 1.0 mph 13.0 mph 75 % 0.00 in
10:28 75.4 °F 65.7 °F 30.07 in NNW 3.0 mph 13.0 mph 72 % 0.00 in
10:33 75.6 °F 65.8 °F 30.07 in NW 6.0 mph 13.0 mph 72 % 0.00 in
10:38 76.1 °F 65.7 °F 30.07 in NE 2.0 mph 11.0 mph 70 % 0.00 in
10:43 76.6 °F 65.3 °F 30.07 in NW 5.0 mph 11.0 mph 68 % 0.00 in
10:48 77.0 °F 65.1 °F 30.07 in WNW 6.0 mph 11.0 mph 67 % 0.00 in
10:53 77.4 °F 64.8 °F 30.08 in WNW 2.0 mph 11.0 mph 65 % 0.00 in
10:59 77.5 °F 64.4 °F 30.08 in ESE 1.0 mph 12.0 mph 64 % 0.00 in
11:04 78.1 °F 63.5 °F 30.08 in NE 2.0 mph 12.0 mph 61 % 0.00 in
11:09 78.1 °F 63.5 °F 30.08 in North 6.0 mph 12.0 mph 61 % 0.00 in
11:14 78.3 °F 63.7 °F 30.08 in North 10.0 mph 11.0 mph 61 % 0.00 in
11:19 78.1 °F 62.6 °F 30.08 in NE 5.0 mph 11.0 mph 59 % 0.00 in
11:24 78.3 °F 63.7 °F 30.08 in NW 5.0 mph 13.0 mph 61 % 0.00 in
11:29 78.3 °F 63.7 °F 30.08 in North 3.0 mph 13.0 mph 61 % 0.00 in
11:34 78.6 °F 63.5 °F 30.08 in NNE 1.0 mph 13.0 mph 60 % 0.00 in
11:39 78.6 °F 63.1 °F 30.08 in ENE 4.0 mph 11.0 mph 59 % 0.00 in
11:44 79.0 °F 63.0 °F 30.08 in NNE 7.0 mph 11.0 mph 58 % 0.00 in
11:49 79.3 °F 62.8 °F 30.08 in NNW 5.0 mph 12.0 mph 57 % 0.00 in
11:54 79.5 °F 63.0 °F 30.08 in WNW 2.0 mph 12.0 mph 57 % 0.00 in
11:59 79.7 °F 63.7 °F 30.08 in NE 3.0 mph 12.0 mph 58 % 0.00 in
12:04 79.9 °F 63.9 °F 30.07 in NNE 4.0 mph 10.0 mph 58 % 0.00 in
12:09 79.9 °F 63.9 °F 30.08 in NNW 4.0 mph 9.0 mph 58 % 0.00 in
12:14 79.9 °F 63.9 °F 30.08 in NNW 1.0 mph 11.0 mph 58 % 0.00 in
12:19 80.2 °F 64.0 °F 30.08 in North 4.0 mph 11.0 mph 58 % 0.00 in
12:24 80.2 °F 62.1 °F 30.08 in WNW 5.0 mph 11.0 mph 54 % 0.00 in
12:29 80.2 °F 62.1 °F 30.08 in NW 4.0 mph 13.0 mph 54 % 0.00 in
12:34 80.1 °F 61.9 °F 30.07 in NW 2.0 mph 13.0 mph 54 % 0.00 in
12:39 80.4 °F 62.8 °F 30.07 in NW 1.0 mph 13.0 mph 55 % 0.00 in
12:44 80.8 °F 63.7 °F 30.07 in ENE 2.0 mph 11.0 mph 56 % 0.00 in
12:49 80.8 °F 62.1 °F 30.07 in NE 2.0 mph 11.0 mph 53 % 0.00 in
12:54 81.1 °F 61.9 °F 30.07 in NNW 3.0 mph 11.0 mph 52 % 0.00 in
12:59 81.3 °F 62.1 °F 30.06 in NW 3.0 mph 10.0 mph 52 % 0.00 in
13:04 81.3 °F 62.6 °F 30.06 in WNW 4.0 mph 10.0 mph 53 % 0.00 in
13:09 81.9 °F 61.9 °F 30.06 in ENE 3.0 mph 9.0 mph 51 % 0.00 in
13:14 81.9 °F 61.3 °F 30.06 in NNW 3.0 mph 9.0 mph 50 % 0.00 in
13:19 82.0 °F 59.9 °F 30.06 in WNW 2.0 mph 8.0 mph 47 % 0.00 in
13:24 81.9 °F 59.7 °F 30.06 in NW 7.0 mph 12.0 mph 47 % 0.00 in
13:29 81.9 °F 60.3 °F 30.06 in South 1.0 mph 13.0 mph 48 % 0.00 in
13:34 81.7 °F 59.5 °F 30.06 in WNW 2.0 mph 13.0 mph 47 % 0.00 in
13:39 81.9 °F 59.0 °F 30.05 in NNW 5.0 mph 13.0 mph 46 % 0.00 in
13:44 81.9 °F 57.2 °F 30.05 in NE 6.0 mph 12.0 mph 43 % 0.00 in
13:49 81.7 °F 57.6 °F 30.05 in NW 3.0 mph 15.0 mph 44 % 0.00 in
13:54 81.7 °F 58.3 °F 30.05 in West 4.0 mph 20.0 mph 45 % 0.00 in
14:00 81.7 °F 57.0 °F 30.05 in NNW 11.0 mph 20.0 mph 43 % 0.00 in
14:05 81.7 °F 58.3 °F 30.05 in North 9.0 mph 20.0 mph 45 % 0.00 in
14:10 81.9 °F 59.0 °F 30.04 in NW 2.0 mph 14.0 mph 46 % 0.00 in
14:15 82.4 °F 59.5 °F 30.04 in NNW 2.0 mph 12.0 mph 46 % 0.00 in
14:20 82.2 °F 58.1 °F 30.04 in NE 6.0 mph 15.0 mph 44 % 0.00 in
14:25 81.9 °F 59.0 °F 30.04 in WNW 4.0 mph 15.0 mph 46 % 0.00 in
14:30 82.4 °F 59.5 °F 30.04 in NNW 5.0 mph 16.0 mph 46 % 0.00 in
14:35 82.4 °F 59.5 °F 30.04 in North 4.0 mph 16.0 mph 46 % 0.00 in
14:40 82.4 °F 60.1 °F 30.03 in North 4.0 mph 16.0 mph 47 % 0.00 in
14:45 82.8 °F 60.4 °F 30.03 in WNW 2.0 mph 10.0 mph 47 % 0.00 in
14:50 82.9 °F 61.2 °F 30.03 in NW 4.0 mph 12.0 mph 48 % 0.00 in
14:55 82.8 °F 59.9 °F 30.03 in SSW 2.0 mph 12.0 mph 46 % 0.00 in
15:00 82.9 °F 60.1 °F 30.02 in NW 2.0 mph 12.0 mph 46 % 0.00 in
15:05 82.8 °F 59.2 °F 30.02 in NW 4.0 mph 12.0 mph 45 % 0.00 in
15:10 82.8 °F 60.4 °F 30.02 in NNW 5.0 mph 12.0 mph 47 % 0.00 in
15:15 82.9 °F 59.4 °F 30.02 in ENE 3.0 mph 12.0 mph 45 % 0.00 in
15:20 83.5 °F 59.4 °F 30.02 in NW 5.0 mph 11.0 mph 44 % 0.00 in
15:25 83.3 °F 58.5 °F 30.02 in SW 4.0 mph 11.0 mph 43 % 0.00 in
15:30 83.1 °F 56.3 °F 30.02 in NNW 5.0 mph 16.0 mph 40 % 0.00 in
15:35 83.3 °F 57.2 °F 30.02 in North 3.0 mph 16.0 mph 41 % 0.00 in
15:40 83.5 °F 58.6 °F 30.02 in NW 4.0 mph 16.0 mph 43 % 0.00 in
15:45 83.5 °F 58.6 °F 30.02 in WNW 4.0 mph 11.0 mph 43 % 0.00 in
15:50 83.5 °F 57.9 °F 30.02 in NW 6.0 mph 11.0 mph 42 % 0.00 in
15:55 83.3 °F 58.5 °F 30.01 in ESE 3.0 mph 15.0 mph 43 % 0.00 in
15:57 83.5 °F 58.6 °F 30.01 in NNW 2.0 mph 15.0 mph 43 % 0.00 in
16:02 83.5 °F 57.9 °F 30.01 in East 1.0 mph 15.0 mph 42 % 0.00 in
16:07 83.7 °F 58.8 °F 30.01 in North 2.0 mph 15.0 mph 43 % 0.00 in
16:12 83.8 °F 59.5 °F 30.01 in NNW 4.0 mph 11.0 mph 44 % 0.00 in
16:17 83.5 °F 58.6 °F 30.01 in NW 4.0 mph 15.0 mph 43 % 0.00 in
16:22 83.5 °F 57.4 °F 30.01 in NNW 6.0 mph 15.0 mph 41 % 0.00 in
16:27 83.1 °F 58.3 °F 30.01 in NW 4.0 mph 15.0 mph 43 % 0.00 in
16:32 83.5 °F 59.4 °F 30.01 in NE 4.0 mph 10.0 mph 44 % 0.00 in
16:37 82.9 °F 58.1 °F 30.01 in West 1.0 mph 10.0 mph 43 % 0.00 in
16:42 83.1 °F 59.5 °F 30.01 in NW 3.0 mph 9.0 mph 45 % 0.00 in
16:47 83.5 °F 58.6 °F 30.01 in NNE 8.0 mph 9.0 mph 43 % 0.00 in
16:52 83.7 °F 59.4 °F 30.01 in NNW 3.0 mph 10.0 mph 44 % 0.00 in
16:58 83.7 °F 58.8 °F 30.01 in East 5.0 mph 10.0 mph 43 % 0.00 in
17:03 83.7 °F 58.1 °F 30.01 in NNW 4.0 mph 10.0 mph 42 % 0.00 in
17:08 83.5 °F 58.6 °F 30.01 in NNW 2.0 mph 10.0 mph 43 % 0.00 in
17:13 83.5 °F 58.6 °F 30.01 in NNE 2.0 mph 10.0 mph 43 % 0.00 in
17:18 83.5 °F 59.4 °F 30.01 in NE 4.0 mph 8.0 mph 44 % 0.00 in
17:23 83.5 °F 59.4 °F 30.01 in NW 3.0 mph 8.0 mph 44 % 0.00 in
17:28 83.5 °F 58.6 °F 30.01 in West 3.0 mph 9.0 mph 43 % 0.00 in
17:33 83.1 °F 57.0 °F 30.01 in ENE 1.0 mph 9.0 mph 41 % 0.00 in
17:38 82.9 °F 58.1 °F 30.01 in NNW 4.0 mph 9.0 mph 43 % 0.00 in
17:43 82.9 °F 58.1 °F 30.01 in North 2.0 mph 7.0 mph 43 % 0.00 in
17:48 82.9 °F 58.8 °F 30.02 in NW 1.0 mph 7.0 mph 44 % 0.00 in
17:53 82.9 °F 58.1 °F 30.02 in NW 3.0 mph 8.0 mph 43 % 0.00 in
17:58 82.6 °F 57.7 °F 30.01 in NW 2.0 mph 8.0 mph 43 % 0.00 in
18:03 82.2 °F 57.6 °F 30.02 in WNW 4.0 mph 11.0 mph 43 % 0.00 in
18:08 82.2 °F 58.8 °F 30.02 in NNE 3.0 mph 11.0 mph 45 % 0.00 in
18:13 82.2 °F 58.8 °F 30.02 in Calm   11.0 mph 45 % 0.00 in
18:18 82.4 °F 58.3 °F 30.02 in East 4.0 mph 8.0 mph 44 % 0.00 in
18:23 82.0 °F 57.9 °F 30.02 in NW 2.0 mph 7.0 mph 44 % 0.00 in
18:28 81.9 °F 58.5 °F 30.02 in NW 2.0 mph 9.0 mph 45 % 0.00 in
18:33 81.7 °F 58.3 °F 30.02 in NW 1.0 mph 9.0 mph 45 % 0.00 in
18:38 81.9 °F 58.5 °F 30.02 in Calm   9.0 mph 45 % 0.00 in
18:43 81.9 °F 59.0 °F 30.02 in ENE 3.0 mph 7.0 mph 46 % 0.00 in
18:48 81.7 °F 58.8 °F 30.02 in NW 1.0 mph 5.0 mph 46 % 0.00 in
18:53 81.7 °F 58.8 °F 30.02 in North 2.0 mph 5.0 mph 46 % 0.00 in
18:58 81.1 °F 58.5 °F 30.02 in NW 1.0 mph 6.0 mph 46 % 0.00 in
19:03 81.0 °F 58.3 °F 30.03 in NW 1.0 mph 6.0 mph 46 % 0.00 in
19:08 80.8 °F 58.1 °F 30.03 in NNW 1.0 mph 6.0 mph 46 % 0.00 in
19:13 80.4 °F 58.3 °F 30.03 in ENE 2.0 mph 6.0 mph 47 % 0.00 in
19:18 80.2 °F 58.1 °F 30.03 in Calm   6.0 mph 47 % 0.00 in
19:23 79.7 °F 58.8 °F 30.03 in Calm   5.0 mph 49 % 0.00 in
19:28 79.0 °F 58.1 °F 30.03 in Calm   5.0 mph 49 % 0.00 in
19:33 78.4 °F 58.8 °F 30.03 in Calm   3.0 mph 51 % 0.00 in
19:38 77.9 °F 58.8 °F 30.03 in Calm   3.0 mph 52 % 0.00 in
19:43 77.4 °F 58.8 °F 30.03 in Calm   3.0 mph 53 % 0.00 in
19:48 76.6 °F 58.8 °F 30.03 in Calm   2.0 mph 54 % 0.00 in
19:53 76.1 °F 58.8 °F 30.03 in Calm   1.0 mph 55 % 0.00 in
19:58 75.7 °F 59.0 °F 30.03 in Calm   1.0 mph 56 % 0.00 in
20:03 75.2 °F 59.0 °F 30.03 in Calm   1.0 mph 57 % 0.00 in
20:08 74.8 °F 59.0 °F 30.03 in Calm   1.0 mph 58 % 0.00 in
20:13 74.5 °F 59.2 °F 30.04 in Calm   1.0 mph 59 % 0.00 in
20:18 74.1 °F 59.4 °F 30.04 in Calm   1.0 mph 60 % 0.00 in
20:23 73.8 °F 59.5 °F 30.04 in Calm   1.0 mph 61 % 0.00 in
20:28 73.4 °F 59.5 °F 30.04 in Calm   1.0 mph 62 % 0.00 in
20:33 73.0 °F 59.2 °F 30.04 in Calm   1.0 mph 62 % 0.00 in
20:38 72.7 °F 59.4 °F 30.04 in Calm   1.0 mph 63 % 0.00 in
20:43 72.3 °F 59.5 °F 30.04 in Calm     64 % 0.00 in
20:48 72.1 °F 59.4 °F 30.04 in Calm   1.0 mph 64 % 0.00 in
20:53 72.0 °F 59.9 °F 30.04 in Calm   1.0 mph 66 % 0.00 in
20:58 71.8 °F 60.3 °F 30.04 in Calm   1.0 mph 67 % 0.00 in
21:03 71.4 °F 60.3 °F 30.05 in Calm     68 % 0.00 in
21:08 71.1 °F 59.9 °F 30.05 in Calm     68 % 0.00 in
21:13 70.5 °F 59.9 °F 30.05 in Calm     69 % 0.00 in
21:18 70.2 °F 59.9 °F 30.05 in Calm     70 % 0.00 in
21:23 69.6 °F 60.3 °F 30.05 in Calm     72 % 0.00 in
21:28 69.3 °F 59.9 °F 30.06 in Calm     72 % 0.00 in
21:33 69.1 °F 60.4 °F 30.06 in Calm     74 % 0.00 in
21:38 69.1 °F 60.4 °F 30.06 in Calm     74 % 0.00 in
21:43 69.1 °F 60.8 °F 30.06 in Calm     75 % 0.00 in
21:49 69.1 °F 60.8 °F 30.06 in Calm     75 % 0.00 in
21:54 68.9 °F 60.6 °F 30.06 in Calm     75 % 0.00 in
21:59 68.7 °F 60.8 °F 30.06 in Calm     76 % 0.00 in
22:04 68.4 °F 60.4 °F 30.06 in Calm     76 % 0.00 in
22:07 68.0 °F 60.1 °F 30.06 in Calm     76 % 0.00 in
22:12 67.8 °F 60.6 °F 30.06 in Calm     78 % 0.00 in
22:17 67.6 °F 60.6 °F 30.06 in Calm     78 % 0.00 in
22:20 67.5 °F 60.8 °F 30.06 in Calm     79 % 0.00 in
22:22 67.6 °F 61.0 °F 30.06 in Calm     79 % 0.00 in
22:26 67.8 °F 61.3 °F 30.06 in Calm     80 % 0.00 in
22:30 67.6 °F 61.2 °F 30.06 in Calm     80 % 0.00 in
22:35 67.6 °F 61.2 °F 30.06 in Calm     80 % 0.00 in
22:40 67.5 °F 61.3 °F 30.06 in Calm     81 % 0.00 in
22:45 66.9 °F 60.6 °F 30.06 in Calm     80 % 0.00 in
22:50 66.7 °F 61.0 °F 30.06 in Calm     82 % 0.00 in
22:55 66.4 °F 60.8 °F 30.07 in Calm     82 % 0.00 in
23:00 66.0 °F 60.6 °F 30.07 in Calm     83 % 0.00 in
23:05 65.7 °F 60.6 °F 30.07 in Calm     84 % 0.00 in
23:10 65.5 °F 60.8 °F 30.07 in Calm     85 % 0.00 in
23:15 65.1 °F 60.4 °F 30.07 in Calm     85 % 0.00 in
23:20 65.3 °F 61.3 °F 30.07 in Calm     87 % 0.00 in
23:25 65.7 °F 61.3 °F 30.07 in Calm     86 % 0.00 in
23:30 65.8 °F 61.5 °F 30.07 in Calm     86 % 0.00 in
23:35 66.0 °F 61.7 °F 30.07 in Calm     86 % 0.00 in
23:40 66.0 °F 61.7 °F 30.07 in Calm     86 % 0.00 in
23:45 65.8 °F 61.9 °F 30.07 in Calm     87 % 0.00 in
23:50 65.8 °F 61.9 °F 30.07 in Calm     87 % 0.00 in
23:55 65.7 °F 61.7 °F 30.06 in Calm   1.0 mph 87 % 0.00 in
Spring, Texas: Villages of Bridgestone
Compliments of Weather Underground - 2.75 mb

Script developed by  Jim McMurry - jmcmurry@mwt.net Adapted for the template by  Wim van der Kuil - Leuven-Template.eu

You find our weather info also at:

UK Metoffice

WeatherCloud

Weather Underground

Mid-South Weather Network

AWEKAS

Citizen Weather Observer Program (CWOP)

HAMweather, WeatherForYou, PWS Weather

Equipment we use:

Weather-station
Davis Vantage Vue

Weather-program
Meteohub

Weather-server
Debian 7.9 x86 (Guest)

Provider
DreamHost

Davis Vantage Vue

Meteohub

Debian 7.9 x86 (Guest)

DreamHost